Terminal Aerodrome Forecast
Issued by NWS

Home | Current Version | Previous Version | Text Only | Print | Product List | Glossary On
Versions: 1 2 3 4 5 6 7 8 9 10 11 12 13 14 15 16 17 18 19 20 21 22 23
000
FTUS46 KHNX 271132
TAFFAT
TAF
KFAT 271132Z 2712/2812 VRB03KT 4SM -SHRA BR OVC070
     FM271600 14005KT 5SM BR VCSH BKN050 OVC070
     FM272300 32005KT P6SM BKN070
     FM280500 VRB03KT 4SM BR SCT100 BKN250=

USA.gov is the U.S. government's official web portal to all federal, state and local government web resources and services.